createdAt,value
2018-07-07T00:02:21.504Z,5.73
2018-07-07T00:04:48.667Z,6.23
2018-07-07T00:07:15.959Z,5.77
2018-07-07T00:09:43.162Z,5.73
2018-07-07T00:12:10.337Z,5.87
2018-07-07T00:14:37.469Z,5.93
2018-07-07T00:17:04.884Z,5.57
2018-07-07T00:19:32.160Z,5.60
2018-07-07T00:21:59.387Z,5.73
2018-07-07T00:24:26.649Z,5.37
2018-07-07T00:26:53.787Z,5.70
2018-07-07T00:29:20.928Z,5.60
2018-07-07T00:31:48.095Z,5.23
2018-07-07T00:34:15.225Z,5.87
2018-07-07T00:36:42.396Z,5.50
2018-07-07T00:39:09.556Z,5.67
2018-07-07T00:41:36.687Z,5.37
2018-07-07T00:44:03.871Z,6.07
2018-07-07T00:46:31.111Z,5.97
2018-07-07T00:48:58.315Z,5.13
2018-07-07T00:51:25.525Z,5.43
2018-07-07T00:53:52.661Z,5.47
2018-07-07T00:56:19.839Z,5.27
2018-07-07T00:58:47.018Z,5.40
2018-07-07T01:01:14.211Z,5.13
2018-07-07T01:03:41.395Z,5.30
2018-07-07T01:06:08.540Z,5.20
2018-07-07T01:08:35.693Z,5.13
2018-07-07T01:11:02.919Z,4.80
2018-07-07T01:13:30.087Z,5.20
2018-07-07T01:15:57.279Z,5.17
2018-07-07T01:18:24.395Z,5.17
2018-07-07T01:20:51.665Z,4.90
2018-07-07T01:23:18.810Z,5.43
2018-07-07T01:25:46.300Z,5.07
2018-07-07T01:28:13.451Z,5.07
2018-07-07T01:30:40.612Z,5.17
2018-07-07T01:33:07.769Z,4.53
2018-07-07T01:35:34.972Z,5.47
2018-07-07T01:38:02.134Z,5.97
2018-07-07T01:40:29.499Z,5.00
2018-07-07T01:42:56.689Z,5.50
2018-07-07T01:45:23.808Z,5.10
2018-07-07T01:47:50.985Z,5.73
2018-07-07T01:50:18.159Z,5.27
2018-07-07T01:52:45.285Z,5.63
2018-07-07T01:55:12.382Z,5.10
2018-07-07T01:57:39.514Z,5.50
2018-07-07T02:00:06.662Z,5.47
2018-07-07T02:02:33.830Z,5.00
2018-07-07T02:05:01.035Z,5.27
2018-07-07T02:07:28.263Z,4.70
2018-07-07T02:09:55.383Z,5.57
2018-07-07T02:12:22.498Z,6.07
2018-07-07T02:14:49.628Z,5.93
2018-07-07T02:17:16.738Z,5.30
2018-07-07T02:19:43.874Z,5.13
2018-07-07T02:22:17.154Z,5.17
2018-07-07T02:24:44.280Z,5.60
2018-07-07T02:27:11.417Z,4.80
2018-07-07T02:29:38.534Z,4.90
2018-07-07T02:32:05.682Z,5.50
2018-07-07T02:34:32.895Z,4.87
2018-07-07T02:37:00.071Z,5.30
2018-07-07T02:39:27.285Z,6.00
2018-07-07T02:41:54.422Z,5.30
2018-07-07T02:44:21.546Z,5.30
2018-07-07T02:46:48.658Z,5.10
2018-07-07T02:49:15.776Z,5.47
2018-07-07T02:51:43.036Z,4.73
2018-07-07T02:54:10.157Z,5.00
2018-07-07T02:56:37.270Z,4.40
2018-07-07T02:59:04.409Z,5.00
2018-07-07T03:01:31.620Z,5.03
2018-07-07T03:03:58.767Z,4.90
2018-07-07T03:06:26.278Z,5.17
2018-07-07T03:08:53.397Z,5.17
2018-07-07T03:11:20.531Z,5.13
2018-07-07T03:13:47.649Z,5.70
2018-07-07T03:16:14.958Z,5.47
2018-07-07T03:18:42.085Z,5.27
2018-07-07T03:21:09.270Z,4.33
2018-07-07T03:23:36.402Z,4.83
2018-07-07T03:26:03.597Z,5.37
2018-07-07T03:28:30.755Z,4.80
2018-07-07T03:30:57.936Z,5.10
2018-07-07T03:33:25.085Z,5.07
2018-07-07T03:35:52.226Z,5.50
2018-07-07T03:38:19.354Z,4.77
2018-07-07T03:40:46.502Z,5.60
2018-07-07T03:43:13.593Z,5.00
2018-07-07T03:45:40.712Z,5.50
2018-07-07T03:48:07.858Z,5.47
2018-07-07T03:50:35.047Z,5.00
2018-07-07T03:53:02.212Z,5.43
2018-07-07T03:55:29.502Z,5.83
2018-07-07T03:57:56.762Z,4.97
2018-07-07T04:00:23.895Z,4.80
2018-07-07T04:02:51.031Z,5.30
2018-07-07T04:05:18.125Z,5.40
2018-07-07T04:07:45.224Z,5.30
2018-07-07T04:10:12.370Z,5.20
2018-07-07T04:12:39.478Z,5.00
2018-07-07T04:15:06.607Z,4.60
2018-07-07T04:17:33.762Z,5.23
2018-07-07T04:20:00.959Z,5.17
2018-07-07T04:22:28.194Z,5.53
2018-07-07T04:24:55.401Z,5.30
2018-07-07T04:27:22.529Z,5.00
2018-07-07T04:29:49.719Z,4.73
2018-07-07T04:32:16.866Z,4.83
2018-07-07T04:34:44.082Z,4.77
2018-07-07T04:37:11.198Z,4.77
2018-07-07T04:39:38.314Z,4.57
2018-07-07T04:42:05.517Z,4.80
2018-07-07T04:44:32.724Z,5.27
2018-07-07T04:46:59.899Z,5.57
2018-07-07T04:49:27.078Z,5.30
2018-07-07T04:51:54.214Z,5.10
2018-07-07T04:54:21.316Z,5.03
2018-07-07T04:56:48.470Z,5.23
2018-07-07T04:59:15.621Z,4.80
2018-07-07T05:01:42.765Z,4.80
2018-07-07T05:04:09.897Z,5.00
2018-07-07T05:06:36.996Z,4.73
2018-07-07T05:09:04.450Z,5.17
2018-07-07T05:11:31.920Z,4.73
2018-07-07T05:13:59.133Z,5.10
2018-07-07T05:16:26.337Z,4.97
2018-07-07T05:18:53.463Z,4.97
2018-07-07T05:21:20.563Z,5.23
2018-07-07T05:23:47.719Z,4.33
2018-07-07T05:26:14.861Z,5.07
2018-07-07T05:28:42.002Z,4.53
2018-07-07T05:31:09.130Z,4.67
2018-07-07T05:33:36.280Z,4.53
2018-07-07T05:36:03.654Z,4.53
2018-07-07T05:38:30.902Z,4.40
2018-07-07T05:40:58.152Z,4.47
2018-07-07T05:43:25.404Z,4.77
2018-07-07T05:45:52.540Z,4.67
2018-07-07T05:48:19.637Z,4.30
2018-07-07T05:50:46.748Z,4.50
2018-07-07T05:53:13.862Z,4.30
2018-07-07T05:55:41.001Z,4.30
2018-07-07T05:58:08.133Z,4.07
2018-07-07T06:00:35.270Z,4.10
2018-07-07T06:03:02.482Z,4.60
2018-07-07T06:05:29.899Z,3.80
2018-07-07T06:07:57.066Z,4.90
2018-07-07T06:10:24.221Z,4.35
2018-07-07T06:12:51.349Z,4.50
2018-07-07T06:15:18.618Z,4.30
2018-07-07T06:17:46.618Z,4.03
2018-07-07T06:20:13.758Z,3.83
2018-07-07T06:22:41.214Z,4.33
2018-07-07T06:25:08.368Z,4.87
2018-07-07T06:27:35.513Z,4.37
2018-07-07T06:30:02.722Z,4.20
2018-07-07T06:32:29.923Z,4.50
2018-07-07T06:34:57.090Z,3.93
2018-07-07T06:37:24.241Z,4.08
2018-07-07T06:39:51.405Z,3.77
2018-07-07T06:42:18.522Z,3.92
2018-07-07T06:44:45.693Z,3.30
2018-07-07T06:47:12.834Z,3.10
2018-07-07T06:49:39.965Z,3.02
2018-07-07T06:52:07.116Z,3.60
2018-07-07T06:54:34.281Z,3.45
2018-07-07T06:57:01.474Z,3.62
2018-07-07T06:59:28.764Z,2.67
2018-07-07T07:01:55.924Z,2.65
2018-07-07T07:04:23.033Z,2.77
2018-07-07T07:06:50.181Z,2.92
2018-07-07T07:09:17.286Z,2.58
2018-07-07T07:11:44.433Z,2.90
2018-07-07T07:14:11.830Z,2.87
2018-07-07T07:16:38.966Z,2.10
2018-07-07T07:19:08.495Z,2.50
2018-07-07T07:21:35.641Z,2.05
2018-07-07T07:24:02.886Z,2.20
2018-07-07T07:26:30.111Z,2.15
2018-07-07T07:28:57.456Z,2.27
2018-07-07T07:31:24.608Z,2.12
2018-07-07T07:33:51.753Z,2.15
2018-07-07T07:36:38.113Z,2.40
2018-07-07T07:39:05.403Z,2.30
2018-07-07T07:41:32.867Z,2.17
2018-07-07T07:44:00.177Z,2.37
2018-07-07T07:46:27.637Z,2.10
2018-07-07T07:48:54.758Z,2.40
2018-07-07T07:51:21.856Z,2.58
2018-07-07T07:53:49.181Z,1.80
2018-07-07T07:56:16.296Z,2.52
2018-07-07T07:58:43.433Z,2.30
2018-07-07T08:01:10.610Z,2.02
2018-07-07T08:03:37.781Z,2.45
2018-07-07T08:06:04.982Z,2.50
2018-07-07T08:08:32.179Z,2.22
2018-07-07T08:10:59.603Z,1.80
2018-07-07T08:13:26.988Z,1.87
2018-07-07T08:15:54.178Z,2.20
2018-07-07T08:18:21.280Z,2.35
2018-07-07T08:20:48.460Z,2.33
2018-07-07T08:23:15.581Z,1.90
2018-07-07T08:25:42.736Z,2.40
2018-07-07T08:28:09.885Z,2.10
2018-07-07T08:30:37.185Z,2.47
2018-07-07T08:33:04.722Z,2.60
2018-07-07T08:35:31.978Z,2.05
2018-07-07T08:37:59.407Z,2.42
2018-07-07T08:40:26.606Z,1.98
2018-07-07T08:42:53.820Z,2.17
2018-07-07T08:45:21.081Z,2.20
2018-07-07T08:47:48.263Z,2.50
2018-07-07T08:50:15.426Z,2.02
2018-07-07T08:52:42.547Z,2.58
2018-07-07T08:55:09.655Z,2.50
2018-07-07T08:57:36.765Z,2.85
2018-07-07T09:00:04.285Z,2.42
2018-07-07T09:02:31.510Z,2.70
2018-07-07T09:04:58.765Z,2.75
2018-07-07T09:07:25.985Z,2.95
2018-07-07T09:09:53.105Z,3.15
2018-07-07T09:12:20.230Z,2.60
2018-07-07T09:14:47.358Z,2.83
2018-07-07T09:17:14.480Z,3.52
2018-07-07T09:19:41.634Z,3.58
2018-07-07T09:22:08.780Z,4.58
2018-07-07T09:24:35.978Z,4.70
2018-07-07T09:27:03.105Z,4.40
2018-07-07T09:29:30.293Z,4.20
2018-07-07T09:31:57.486Z,4.45
2018-07-07T09:34:24.602Z,4.90
2018-07-07T09:36:51.722Z,4.75
2018-07-07T09:39:18.830Z,4.25
2018-07-07T09:41:45.975Z,5.10
2018-07-07T09:44:13.248Z,5.15
2018-07-07T09:46:40.321Z,5.47
2018-07-07T09:49:07.523Z,5.03
2018-07-07T09:51:34.680Z,5.03
2018-07-07T09:54:01.850Z,4.70
2018-07-07T09:56:29.004Z,4.95
2018-07-07T09:58:56.185Z,5.25
2018-07-07T10:01:23.329Z,5.60
2018-07-07T10:03:50.479Z,4.72
2018-07-07T10:06:17.662Z,5.47
2018-07-07T10:08:44.797Z,5.80
2018-07-07T10:11:11.962Z,5.28
2018-07-07T10:13:39.067Z,5.47
2018-07-07T10:16:06.217Z,4.72
2018-07-07T10:18:33.440Z,4.28
2018-07-07T10:21:00.614Z,3.75
2018-07-07T10:23:27.782Z,4.40
2018-07-07T10:25:54.901Z,3.65
2018-07-07T10:28:22.043Z,4.25
2018-07-07T10:30:49.217Z,4.42
2018-07-07T10:33:16.369Z,4.20
2018-07-07T10:35:43.489Z,4.25
2018-07-07T10:38:10.659Z,5.08
2018-07-07T10:40:37.789Z,4.58
2018-07-07T10:43:05.167Z,4.80
2018-07-07T10:45:32.436Z,5.00
2018-07-07T10:47:59.533Z,4.28
2018-07-07T10:50:26.860Z,4.60
2018-07-07T10:53:00.887Z,4.20
2018-07-07T10:55:28.108Z,3.98
2018-07-07T10:57:55.338Z,3.92
2018-07-07T11:00:22.458Z,3.90
2018-07-07T11:02:49.593Z,4.75
2018-07-07T11:05:16.732Z,4.67
2018-07-07T11:07:43.859Z,4.45
2018-07-07T11:10:11.282Z,4.75
2018-07-07T11:12:38.489Z,5.22
2018-07-07T11:15:05.614Z,4.83
2018-07-07T11:17:32.773Z,4.97
2018-07-07T11:20:00.008Z,4.40
2018-07-07T11:22:27.258Z,4.75
2018-07-07T11:24:54.405Z,4.55
2018-07-07T11:27:21.593Z,4.95
2018-07-07T11:29:48.747Z,5.35
2018-07-07T11:32:15.890Z,4.62
2018-07-07T11:34:43.020Z,5.15
2018-07-07T11:37:10.197Z,5.03
2018-07-07T11:39:37.425Z,4.83
2018-07-07T11:42:04.782Z,4.30
2018-07-07T11:44:31.969Z,4.10
2018-07-07T11:46:59.161Z,3.90
2018-07-07T11:49:26.666Z,4.40
2018-07-07T11:51:53.839Z,3.75
2018-07-07T11:54:20.950Z,3.90
2018-07-07T11:56:48.143Z,4.22
2018-07-07T11:59:15.290Z,4.65
2018-07-07T12:01:42.441Z,4.55
2018-07-07T12:04:09.593Z,5.40
2018-07-07T12:06:36.721Z,5.10
2018-07-07T12:09:04.819Z,4.45
2018-07-07T12:11:32.071Z,5.00
2018-07-07T12:13:59.253Z,4.30
2018-07-07T12:16:26.465Z,4.15
2018-07-07T12:18:53.610Z,4.10
2018-07-07T12:21:20.773Z,4.83
2018-07-07T12:23:47.899Z,4.50
2018-07-07T12:26:15.281Z,4.75
2018-07-07T12:28:42.421Z,5.20
2018-07-07T12:31:09.564Z,4.65
2018-07-07T12:33:36.730Z,5.12
2018-07-07T12:36:04.253Z,5.58
2018-07-07T12:38:31.393Z,4.65
2018-07-07T12:40:58.572Z,4.08
2018-07-07T12:43:25.687Z,4.40
2018-07-07T12:45:52.853Z,4.05
2018-07-07T12:48:20.010Z,4.08
2018-07-07T12:50:47.381Z,3.90
2018-07-07T12:53:15.521Z,4.28
2018-07-07T12:55:42.658Z,4.80
2018-07-07T12:58:09.839Z,4.33
2018-07-07T13:00:36.970Z,4.30
2018-07-07T13:03:04.250Z,5.10
2018-07-07T13:05:31.526Z,4.50
2018-07-07T13:07:58.806Z,4.37
2018-07-07T13:10:26.153Z,4.33
2018-07-07T13:12:53.337Z,4.87
2018-07-07T13:15:20.489Z,4.33
2018-07-07T13:17:47.614Z,4.42
2018-07-07T13:20:14.761Z,6.28
2018-07-07T13:22:41.900Z,4.65
2018-07-07T13:25:09.062Z,4.70
2018-07-07T13:27:36.234Z,4.10
2018-07-07T13:30:03.666Z,3.80
2018-07-07T13:32:30.863Z,3.90
2018-07-07T13:34:58.106Z,5.72
2018-07-07T13:37:25.262Z,3.80
2018-07-07T13:39:52.405Z,3.60
2018-07-07T13:42:19.581Z,3.72
2018-07-07T13:44:46.763Z,3.85
2018-07-07T13:47:13.896Z,3.87
2018-07-07T13:49:41.065Z,4.55
2018-07-07T13:52:08.239Z,4.40
2018-07-07T13:54:35.604Z,4.10
2018-07-07T13:57:02.868Z,3.87
2018-07-07T13:59:30.122Z,4.15
2018-07-07T14:01:57.294Z,4.20
2018-07-07T14:04:24.470Z,4.35
2018-07-07T14:06:51.642Z,4.40
2018-07-07T14:09:18.766Z,4.10
2018-07-07T14:11:45.911Z,4.22
2018-07-07T14:14:13.081Z,4.05
2018-07-07T14:16:40.412Z,4.05
2018-07-07T14:19:08.082Z,4.75
2018-07-07T14:21:35.330Z,4.12
2018-07-07T14:24:02.523Z,4.12
2018-07-07T14:26:29.828Z,4.53
2018-07-07T14:28:57.034Z,4.45
2018-07-07T14:31:24.423Z,3.90
2018-07-07T14:33:51.630Z,4.22
2018-07-07T14:36:18.792Z,3.87
2018-07-07T14:38:45.971Z,3.40
2018-07-07T14:41:15.201Z,3.98
2018-07-07T14:43:49.942Z,3.83
2018-07-07T14:46:17.125Z,3.20
2018-07-07T14:48:44.246Z,2.98
2018-07-07T14:51:11.378Z,3.62
2018-07-07T14:53:38.550Z,3.42
2018-07-07T14:56:05.706Z,3.98
2018-07-07T14:58:32.987Z,3.08
2018-07-07T15:01:00.303Z,2.95
2018-07-07T15:03:27.624Z,3.08
2018-07-07T15:05:56.032Z,3.42
2018-07-07T15:08:23.362Z,3.67
2018-07-07T15:10:50.525Z,3.05
2018-07-07T15:13:17.717Z,3.17
2018-07-07T15:15:44.962Z,3.58
2018-07-07T15:18:12.117Z,3.12
2018-07-07T15:20:39.360Z,4.03
2018-07-07T15:23:06.590Z,2.95
2018-07-07T15:25:33.768Z,3.00
2018-07-07T15:28:01.287Z,2.72
2018-07-07T15:30:28.445Z,2.55
2018-07-07T15:32:55.714Z,3.00
2018-07-07T15:35:22.888Z,2.92
2018-07-07T15:37:50.038Z,2.90
2018-07-07T15:40:17.241Z,2.83
2018-07-07T15:42:44.333Z,2.50
2018-07-07T15:45:11.506Z,2.55
2018-07-07T15:47:38.645Z,2.95
2018-07-07T15:50:05.843Z,2.20
2018-07-07T15:52:33.046Z,2.42
2018-07-07T15:55:00.350Z,2.40
2018-07-07T15:57:27.482Z,2.75
2018-07-07T15:59:54.652Z,2.33
2018-07-07T16:02:21.793Z,2.60
2018-07-07T16:04:48.922Z,2.27
2018-07-07T16:07:16.029Z,2.67
2018-07-07T16:09:43.168Z,2.83
2018-07-07T16:12:10.315Z,2.25
2018-07-07T16:14:37.750Z,2.25
2018-07-07T16:17:04.914Z,2.22
2018-07-07T16:19:32.108Z,2.40
2018-07-07T16:21:59.602Z,2.20
2018-07-07T16:24:26.712Z,2.20
2018-07-07T16:26:53.880Z,2.20
2018-07-07T16:29:21.054Z,2.50
2018-07-07T16:31:48.198Z,1.90
2018-07-07T16:34:15.353Z,1.92
2018-07-07T16:36:42.481Z,1.60
2018-07-07T16:39:09.681Z,1.98
2018-07-07T16:41:36.957Z,1.42
2018-07-07T16:44:04.526Z,1.82
2018-07-07T16:46:32.078Z,1.67
2018-07-07T16:48:59.441Z,1.77
2018-07-07T16:51:26.629Z,1.57
2018-07-07T16:53:53.870Z,1.57
2018-07-07T16:56:21.057Z,1.90
2018-07-07T16:58:48.388Z,1.75
2018-07-07T17:01:16.069Z,1.60
2018-07-07T17:03:43.258Z,1.60
2018-07-07T17:06:10.410Z,2.10
2018-07-07T17:08:37.609Z,1.55
2018-07-07T17:11:05.358Z,1.95
2018-07-07T17:13:32.626Z,1.45
2018-07-07T17:15:59.971Z,1.62
2018-07-07T17:18:27.144Z,1.75
2018-07-07T17:20:54.773Z,2.15
2018-07-07T17:23:21.917Z,1.40
2018-07-07T17:25:49.082Z,1.80
2018-07-07T17:28:16.241Z,1.92
2018-07-07T17:30:43.401Z,1.67
2018-07-07T17:33:10.601Z,1.90
2018-07-07T17:35:37.745Z,1.77
2018-07-07T17:38:04.934Z,1.85
2018-07-07T17:40:32.116Z,1.95
2018-07-07T17:43:00.177Z,1.70
2018-07-07T17:45:27.402Z,1.80
2018-07-07T17:47:54.553Z,2.27
2018-07-07T17:50:21.763Z,1.60
2018-07-07T17:52:48.932Z,1.40
2018-07-07T17:55:16.341Z,1.80
2018-07-07T17:57:43.507Z,1.98
2018-07-07T18:00:11.184Z,1.65
2018-07-07T18:02:38.329Z,1.50
2018-07-07T18:05:05.538Z,1.80
2018-07-07T18:07:32.714Z,2.12
2018-07-07T18:10:00.370Z,2.17
2018-07-07T18:12:27.483Z,2.17
2018-07-07T18:14:54.858Z,1.70
2018-07-07T18:17:21.997Z,2.02
2018-07-07T18:19:49.149Z,1.80
2018-07-07T18:22:16.324Z,1.72
2018-07-07T18:24:43.457Z,1.90
2018-07-07T18:27:10.654Z,1.92
2018-07-07T18:29:37.913Z,1.87
2018-07-07T18:32:05.195Z,1.65
2018-07-07T18:34:32.421Z,2.33
2018-07-07T18:37:00.281Z,1.60
2018-07-07T18:39:27.430Z,1.92
2018-07-07T18:41:54.591Z,1.95
2018-07-07T18:44:21.762Z,1.80
2018-07-07T18:46:48.902Z,1.10
2018-07-07T18:49:16.054Z,2.10
2018-07-07T18:51:43.249Z,1.97
2018-07-07T18:54:10.374Z,1.90
2018-07-07T18:56:37.627Z,2.03
2018-07-07T18:59:04.901Z,1.70
2018-07-07T19:01:32.239Z,1.90
2018-07-07T19:03:59.717Z,1.97
2018-07-07T19:06:26.843Z,1.77
2018-07-07T19:08:53.954Z,2.17
2018-07-07T19:11:21.101Z,2.23
2018-07-07T19:13:48.222Z,1.90
2018-07-07T19:16:15.329Z,1.97
2018-07-07T19:18:42.477Z,2.40
2018-07-07T19:21:15.400Z,2.07
2018-07-07T19:23:48.574Z,2.10
2018-07-07T19:26:21.597Z,2.10
2018-07-07T19:28:48.734Z,1.87
2018-07-07T19:31:15.990Z,2.10
2018-07-07T19:33:48.909Z,2.27
2018-07-07T19:36:21.821Z,2.13
2018-07-07T19:38:48.945Z,2.00
2018-07-07T19:41:16.135Z,2.40
2018-07-07T19:43:43.285Z,1.87
2018-07-07T19:46:10.476Z,2.00
2018-07-07T19:48:37.586Z,1.87
2018-07-07T19:51:04.764Z,6.60
2018-07-07T19:53:32.177Z,5.07
2018-07-07T19:55:59.326Z,2.67
2018-07-07T19:58:26.514Z,2.30
2018-07-07T20:00:53.690Z,2.17
2018-07-07T20:03:20.846Z,2.33
2018-07-07T20:05:47.975Z,1.93
2018-07-07T20:08:15.390Z,2.27
2018-07-07T20:10:42.520Z,2.13
2018-07-07T20:13:09.705Z,2.23
2018-07-07T20:15:48.658Z,2.23
2018-07-07T20:18:16.422Z,2.00
2018-07-07T20:21:03.800Z,2.10
2018-07-07T20:23:31.014Z,1.77
2018-07-07T20:26:03.142Z,2.30
2018-07-07T20:28:36.075Z,2.43
2018-07-07T20:31:03.303Z,1.77
2018-07-07T20:33:30.609Z,2.20
2018-07-07T20:35:57.829Z,2.23
2018-07-07T20:38:25.101Z,2.00
2018-07-07T20:40:52.467Z,2.00
2018-07-07T20:43:19.888Z,1.90
2018-07-07T20:45:47.042Z,2.10
2018-07-07T20:48:14.277Z,2.10
2018-07-07T20:50:41.469Z,1.80
2018-07-07T20:53:08.650Z,1.63
2018-07-07T20:55:35.920Z,1.70
2018-07-07T20:58:03.208Z,1.83
2018-07-07T21:00:30.627Z,2.27
2018-07-07T21:02:57.795Z,1.93
2018-07-07T21:05:24.918Z,1.50
2018-07-07T21:07:52.065Z,1.70
2018-07-07T21:10:19.211Z,1.73
2018-07-07T21:12:46.382Z,1.93
2018-07-07T21:15:13.522Z,1.87
2018-07-07T21:17:40.653Z,2.17
2018-07-07T21:20:07.924Z,2.20
2018-07-07T21:22:35.117Z,2.03
2018-07-07T21:25:02.539Z,1.80
2018-07-07T21:27:29.771Z,2.50
2018-07-07T21:29:56.921Z,2.40
2018-07-07T21:32:24.074Z,1.57
2018-07-07T21:34:51.231Z,1.93
2018-07-07T21:37:18.404Z,1.70
2018-07-07T21:39:45.538Z,2.00
2018-07-07T21:42:12.693Z,1.83
2018-07-07T21:44:39.857Z,1.77
2018-07-07T21:47:07.007Z,1.40
2018-07-07T21:49:34.190Z,1.83
2018-07-07T21:52:01.504Z,1.97
2018-07-07T21:54:28.713Z,1.50
2018-07-07T21:56:56.674Z,1.80
2018-07-07T21:59:24.038Z,1.63
2018-07-07T22:01:58.885Z,1.73
2018-07-07T22:04:33.789Z,1.80
2018-07-07T22:07:08.988Z,2.07
2018-07-07T22:09:36.998Z,1.77
2018-07-07T22:12:04.234Z,1.83
2018-07-07T22:14:31.773Z,1.80
2018-07-07T22:16:59.026Z,1.80
2018-07-07T22:19:26.222Z,1.90
2018-07-07T22:22:03.791Z,1.70
2018-07-07T22:24:31.289Z,1.90
2018-07-07T22:27:02.648Z,1.47
2018-07-07T22:29:29.745Z,1.50
2018-07-07T22:31:58.212Z,1.77
2018-07-07T22:34:26.044Z,1.97
2018-07-07T22:36:53.461Z,2.10
2018-07-07T22:39:20.689Z,1.77
2018-07-07T22:42:03.408Z,1.60
2018-07-07T22:44:31.415Z,1.80
2018-07-07T22:46:58.718Z,1.80
2018-07-07T22:49:26.687Z,2.23
2018-07-07T22:51:54.076Z,1.40
2018-07-07T22:54:21.232Z,2.10
2018-07-07T22:56:48.360Z,1.60
2018-07-07T22:59:15.530Z,1.70
2018-07-07T23:01:42.673Z,1.90
2018-07-07T23:04:09.996Z,1.40
2018-07-07T23:06:40.201Z,1.90
2018-07-07T23:09:08.910Z,1.60
2018-07-07T23:11:36.065Z,1.70
2018-07-07T23:14:03.358Z,1.63
2018-07-07T23:16:31.059Z,1.90
2018-07-07T23:18:58.281Z,1.43
2018-07-07T23:21:25.506Z,2.07
2018-07-07T23:23:52.630Z,1.53
2018-07-07T23:26:19.771Z,1.77
2018-07-07T23:28:47.178Z,1.60
2018-07-07T23:31:14.325Z,2.20
2018-07-07T23:33:41.477Z,1.97
2018-07-07T23:36:08.617Z,1.60
2018-07-07T23:38:35.773Z,1.67
2018-07-07T23:41:03.139Z,1.83
2018-07-07T23:43:30.362Z,2.00
2018-07-07T23:48:31.679Z,1.77
2018-07-07T23:50:58.828Z,1.67
2018-07-07T23:53:25.945Z,2.00
2018-07-07T23:55:53.300Z,1.93
2018-07-07T23:58:20.456Z,2.03
